»·PEaware :: N165YP KSBA-KSNA

N165YP :: KSBA-KSNA

FLIGHT INFORMATION

Flight Status: Arrived
Operator: Privately registered:
United States
More flights under this callsign
Pilot: Allen F. (27411)
Aircraft: BEECH AIRCRAFT BARON
(BE58)
More flights by this aircraft type
Origin: KSBA Santa Barbara Mun
United States
Destination: KSNA John Wayne-Orange Co
United States
More flights between these airports :: More routes between these airports
Route: KWANG CMA VNY V186 BAYJY V363 POXKU V8 SLI
File this flight plan on PilotEdge
Remarks: I'd like to fly the ILS rwy 20R. Thank you
Altitude:
(Current/Filed)
5,000ft
Speed:
(Current/Filed)
175kts
Departed: 13-Jan-21 05:19 PM
Arrived: 13-Jan-21 06:09 PM
Distance/Time
Traveled:
108nm/0:50
Distance/Time
To Go:
Arrived

Flight Plot

Page will automatically refresh every two minutes.


Map Options




Map Legend


Flown Route
Filed Route
Departure Airport
Arrival Airport
Navaid (VOR, NDB)
Fix

Horizontal Profiles

Position Reports

Time Latitude Longitude Heading Altitude Ground
Speed
13-Jan-21 17:06 34.432572 -119.835075 71 17ft 0kts
13-Jan-21 17:07 34.432572 -119.835075 71 17ft 0kts
13-Jan-21 17:08 34.432572 -119.835075 71 17ft 0kts
13-Jan-21 17:09 34.432572 -119.835075 71 17ft 0kts
13-Jan-21 17:10 34.432572 -119.835075 71 17ft 0kts
13-Jan-21 17:11 34.432572 -119.835075 71 17ft 0kts
13-Jan-21 17:12 34.432572 -119.835075 71 17ft 0kts
13-Jan-21 17:13 34.432572 -119.835075 71 17ft 0kts
13-Jan-21 17:14 34.432183 -119.834900 250 17ft 10kts
13-Jan-21 17:15 34.428806 -119.834659 182 17ft 0kts
13-Jan-21 17:16 34.428806 -119.834659 182 17ft 0kts
13-Jan-21 17:17 34.428806 -119.834659 182 17ft 0kts
13-Jan-21 17:18 34.427514 -119.847380 266 122ft 120kts
13-Jan-21 17:19 34.420401 -119.888618 253 1824ft 133kts
13-Jan-21 17:20 34.411666 -119.930183 225 3464ft 133kts
13-Jan-21 17:21 34.382511 -119.923709 125 4918ft 136kts
13-Jan-21 17:22 34.357808 -119.880319 123 5072ft 172kts
13-Jan-21 17:23 34.329564 -119.829842 125 5015ft 180kts
13-Jan-21 17:24 34.299211 -119.780790 109 4932ft 185kts
13-Jan-21 17:25 34.286748 -119.721446 103 5042ft 181kts
13-Jan-21 17:26 34.273826 -119.662258 103 5055ft 183kts
13-Jan-21 17:27 34.261814 -119.601854 101 5003ft 184kts
13-Jan-21 17:28 34.246878 -119.542782 111 5063ft 181kts
13-Jan-21 17:29 34.238276 -119.482344 95 4991ft 187kts
13-Jan-21 17:30 34.234550 -119.420626 91 5188ft 175kts
13-Jan-21 17:31 34.226304 -119.359413 105 5009ft 185kts
13-Jan-21 17:32 34.212840 -119.300696 96 5208ft 178kts
13-Jan-21 17:33 34.206161 -119.238932 101 4964ft 189kts
13-Jan-21 17:34 34.205707 -119.177060 84 4867ft 192kts
13-Jan-21 17:36 34.209877 -119.114569 88 4870ft 186kts
13-Jan-21 17:37 34.210558 -119.053715 89 5069ft 182kts
13-Jan-21 17:38 34.212822 -118.991825 87 5063ft 182kts
13-Jan-21 17:39 34.213432 -118.929907 89 5025ft 185kts
13-Jan-21 17:40 34.215217 -118.868130 88 5070ft 183kts
13-Jan-21 17:41 34.217457 -118.806962 87 5113ft 185kts
13-Jan-21 17:42 34.217561 -118.743897 91 4955ft 186kts
13-Jan-21 17:43 34.217425 -118.682400 81 5122ft 180kts
13-Jan-21 17:44 34.219716 -118.620875 89 5114ft 181kts
13-Jan-21 17:45 34.219799 -118.558899 90 5078ft 185kts
13-Jan-21 17:46 34.219650 -118.496426 95 4994ft 186kts
13-Jan-21 17:47 34.202649 -118.438053 107 5035ft 183kts
13-Jan-21 17:48 34.185727 -118.380077 105 5060ft 185kts
13-Jan-21 17:49 34.169934 -118.321106 104 5032ft 186kts
13-Jan-21 17:50 34.154024 -118.262299 110 5087ft 183kts
13-Jan-21 17:51 34.138114 -118.202658 107 5030ft 182kts
13-Jan-21 17:52 34.122335 -118.144151 110 5006ft 186kts
13-Jan-21 17:53 34.101883 -118.087415 115 5012ft 185kts
13-Jan-21 17:53 34.085110 -118.040208 112 5145ft 180kts
13-Jan-21 17:55 34.064730 -117.972827 112 5099ft 185kts
13-Jan-21 17:55 34.049223 -117.924558 106 5061ft 187kts
13-Jan-21 17:57 34.032467 -117.854836 115 5036ft 183kts
13-Jan-21 17:57 34.010761 -117.811396 140 5154ft 178kts
13-Jan-21 17:58 33.971129 -117.774336 136 4062ft 176kts
13-Jan-21 17:59 33.937650 -117.739010 163 3824ft 150kts
13-Jan-21 18:00 33.901282 -117.727635 169 3188ft 124kts
13-Jan-21 18:01 33.871569 -117.742742 218 2976ft 126kts
13-Jan-21 18:02 33.839683 -117.768849 213 3293ft 155kts
13-Jan-21 18:03 33.797585 -117.796081 198 3199ft 177kts
13-Jan-21 18:04 33.749917 -117.808239 202 3082ft 170kts
13-Jan-21 18:05 33.724459 -117.836872 220 1031ft 114kts
13-Jan-21 18:06 33.701069 -117.852699 204 528ft 89kts
13-Jan-21 18:07 33.679551 -117.866317 207 60ft 61kts
13-Jan-21 18:08 33.674570 -117.868601 173 60ft 6kts
13-Jan-21 18:09 33.674004 -117.867845 123 60ft 9kts
13-Jan-21 18:10 33.672022 -117.867494 164 60ft 21kts

Navigation Log

Ident Type
Flight plan parsing failed, navigation log unavailable